Time;durP1;ratioP1;P1;durP2;ratioP2;P2;SDS_P1;SDS_P2;PMS_P1;PMS_P2;Temp;Humidity;BMP_temperature;BMP_pressure;BME280_temperature;BME280_humidity;BME280_pressure;Samples;Min_cycle;Max_cycle;Signal;HPM_P1;HPM_P2
2022/12/10 00:02:26;;;;;;;;;;;11.60;99.90;;;;;;5072152;28;19997;-73
2022/12/10 00:04:52;;;;;;;;;;;11.60;99.90;;;;;;5073818;28;20279;-73
2022/12/10 00:07:18;;;;;;;;;;;11.50;99.90;;;;;;5069737;28;19909;-73
2022/12/10 00:09:49;;;;;;;;;;;11.50;99.90;;;;;;5059497;28;20158;-73
2022/12/10 00:12:18;;;;;;;;;;;11.50;99.90;;;;;;5059116;28;19913;-73
2022/12/10 00:17:47;;;;;;;;;;;11.50;99.90;;;;;;5060116;28;19935;-73
2022/12/10 00:20:16;;;;;;;;;;;11.60;99.90;;;;;;5070150;28;19935;-73
2022/12/10 00:23:00;;;;;;;;;;;11.50;99.90;;;;;;5075816;28;19913;-73
2022/12/10 00:34:55;;;;;;;;;;;11.20;99.90;;;;;;5058501;28;19924;-73
2022/12/10 00:37:24;;;;;;;;;;;11.20;99.90;;;;;;5061893;28;19913;-75
2022/12/10 00:40:02;;;;;;;;;;;11.20;99.90;;;;;;5058149;28;19921;-74
2022/12/10 00:42:33;;;;;;;;;;;11.20;99.90;;;;;;5070937;28;19919;-73
2022/12/10 00:45:07;;;;;;;;;;;11.20;99.90;;;;;;5073333;28;19931;-73
2022/12/10 00:47:46;;;;;;;;;;;11.10;99.90;;;;;;5091023;28;20384;-73
2022/12/10 00:50:11;;;;;;;;;;;11.10;99.90;;;;;;5070616;28;20173;-73
2022/12/10 01:08:05;;;;;;;;;;;11.00;99.90;;;;;;5056488;28;20003;-73
2022/12/10 01:10:31;;;;;;;;;;;11.00;99.90;;;;;;5058335;28;20623;-73
2022/12/10 01:16:15;;;;;;;;;;;10.90;99.90;;;;;;5068137;28;20437;-72
2022/12/10 01:22:21;;;;;;;;;;;11.00;99.90;;;;;;5064127;28;20302;-72
2022/12/10 01:24:46;;;;;;;;;;;11.00;99.90;;;;;;5054247;28;20356;-75
2022/12/10 01:33:40;;;;;;;;;;;11.10;99.90;;;;;;5024511;28;19932;-72
2022/12/10 01:57:53;;;;;;;;;;;11.00;99.90;;;;;;4948089;28;19923;-73
2022/12/10 02:00:25;;;;;;;;;;;11.00;99.90;;;;;;4952244;29;19970;-73
2022/12/10 02:09:07;;;;;;;;;;;11.00;99.90;;;;;;5054698;28;19962;-72
2022/12/10 02:11:42;;;;;;;;;;;10.90;99.90;;;;;;5054859;28;20419;-72
2022/12/10 02:14:39;;;;;;;;;;;11.00;99.90;;;;;;5046307;28;19921;-72
2022/12/10 02:17:18;;;;;;;;;;;11.00;99.90;;;;;;5020487;28;20364;-72
2022/12/10 02:20:04;;;;;;;;;;;11.00;99.90;;;;;;5035247;28;20243;-72
2022/12/10 02:22:43;;;;;;;;;;;;;;;;;;;;;
2022/12/10 02:25:30;;;;;;;;;;;11.00;99.90;;;;;;5045373;28;20027;-72
2022/12/10 02:28:18;;;;;;;;;;;11.00;99.90;;;;;;5052130;28;20522;-72
2022/12/10 02:30:58;;;;;;;;;;;;;;;;;;;;;
2022/12/10 02:33:45;;;;;;;;;;;;;;;;;;;;;
2022/12/10 02:36:13;;;;;;;;;;;11.00;99.90;;;;;;5030647;28;19917;-72
2022/12/10 02:44:54;;;;;;;;;;;11.00;99.90;;;;;;4978608;28;19920;-72
2022/12/10 02:47:20;;;;;;;;;;;10.90;99.90;;;;;;4977429;28;20417;-72
2022/12/10 02:49:52;;;;;;;;;;;11.00;99.90;;;;;;4979214;28;20417;-74
2022/12/10 03:08:17;;;;;;;;;;;11.00;99.90;;;;;;4993437;28;20010;-72
2022/12/10 03:11:02;;;;;;;;;;;11.00;99.90;;;;;;4990487;28;19918;-72
2022/12/10 03:22:47;;;;;;;;;;;11.00;99.90;;;;;;4952838;28;20104;-71
2022/12/10 03:28:01;;;;;;;;;;;11.00;99.90;;;;;;5076931;23;19925;-72
2022/12/10 03:31:09;;;;;;;;;;;11.00;99.90;;;;;;5046516;28;19920;-72
2022/12/10 03:33:47;;;;;;;;;;;;;;;;;;;;;
2022/12/10 03:39:41;;;;;;;;;;;11.00;99.90;;;;;;4929890;29;19921;-72
2022/12/10 03:42:07;;;;;;;;;;;11.00;99.90;;;;;;4944435;29;19922;-72
2022/12/10 03:44:47;;;;;;;;;;;;;;;;;;;;;
2022/12/10 03:56:31;;;;;;;;;;;11.00;99.90;;;;;;5076796;28;19928;-73
2022/12/10 03:59:03;;;;;;;;;;;11.00;99.90;;;;;;5076795;28;20360;-71
2022/12/10 04:01:29;;;;;;;;;;;11.00;99.90;;;;;;5061197;28;20002;-72
2022/12/10 04:04:18;;;;;;;;;;;11.10;99.90;;;;;;5047968;28;19940;-72
2022/12/10 04:06:44;;;;;;;;;;;11.00;99.90;;;;;;5067203;28;19944;-71
2022/12/10 04:09:14;;;;;;;;;;;11.00;99.90;;;;;;5076734;28;19915;-72
2022/12/10 04:17:36;;;;;;;;;;;11.10;99.90;;;;;;5076222;28;19955;-71
2022/12/10 04:20:03;;;;;;;;;;;11.00;99.90;;;;;;5066578;28;20164;-72
2022/12/10 04:28:23;;;;;;;;;;;11.10;99.90;;;;;;5076767;28;19959;-72
2022/12/10 04:30:49;;;;;;;;;;;11.10;99.90;;;;;;5068989;28;19917;-72
2022/12/10 04:33:14;;;;;;;;;;;11.10;99.90;;;;;;5073398;28;19954;-71
2022/12/10 04:51:04;;;;;;;;;;;11.10;99.90;;;;;;5069754;28;19919;-71
2022/12/10 04:56:30;;;;;;;;;;;11.10;99.90;;;;;;5065535;28;19932;-72
2022/12/10 04:59:00;;;;;;;;;;;11.10;99.90;;;;;;5051133;28;20372;-71
2022/12/10 05:02:02;;;;;;;;;;;11.10;99.90;;;;;;5069068;28;19935;-71
2022/12/10 05:04:28;;;;;;;;;;;11.00;99.90;;;;;;5074564;28;19920;-72
2022/12/10 05:07:29;;;;;;;;;;;11.00;99.90;;;;;;5074985;28;19908;-71
2022/12/10 05:09:55;;;;;;;;;;;11.00;99.90;;;;;;5055271;28;20771;-72
2022/12/10 05:12:21;;;;;;;;;;;11.00;99.90;;;;;;5068701;28;19912;-71
2022/12/10 05:17:44;;;;;;;;;;;11.00;99.90;;;;;;5034643;28;19985;-71
2022/12/10 05:20:13;;;;;;;;;;;11.00;99.90;;;;;;5070433;28;19913;-72
2022/12/10 05:25:39;;;;;;;;;;;;;;;;;;;;;
2022/12/10 05:28:28;;;;;;;;;;;11.00;99.90;;;;;;5069148;28;20015;-71
2022/12/10 05:31:10;;;;;;;;;;;11.00;99.90;;;;;;5066911;28;20291;-71
2022/12/10 05:33:42;;;;;;;;;;;11.00;99.90;;;;;;5075220;28;19957;-72
2022/12/10 05:42:23;;;;;;;;;;;11.00;99.90;;;;;;5074767;28;19915;-71
2022/12/10 05:44:52;;;;;;;;;;;11.00;99.90;;;;;;5072534;28;19909;-71
2022/12/10 05:50:09;;;;;;;;;;;11.00;99.90;;;;;;5063705;28;19908;-71
2022/12/10 05:52:41;;;;;;;;;;;11.00;99.90;;;;;;5075350;28;19940;-71
2022/12/10 05:55:07;;;;;;;;;;;10.90;99.90;;;;;;5074433;28;20364;-71
2022/12/10 05:57:35;;;;;;;;;;;11.00;99.90;;;;;;5074553;28;20402;-72
2022/12/10 06:00:04;;;;;;;;;;;11.00;99.90;;;;;;5056575;28;19985;-71
2022/12/10 06:02:32;;;;;;;;;;;11.00;99.90;;;;;;5065926;28;19909;-72
2022/12/10 06:04:58;;;;;;;;;;;11.00;99.90;;;;;;5055344;28;19909;-71
2022/12/10 06:07:24;;;;;;;;;;;11.00;99.90;;;;;;5053690;28;19916;-71
2022/12/10 06:09:56;;;;;;;;;;;11.00;99.90;;;;;;5054626;28;19908;-71
2022/12/10 06:15:41;;;;;;;;;;;10.90;99.90;;;;;;4989484;28;20463;-71
2022/12/10 06:18:13;;;;;;;;;;;10.90;99.90;;;;;;5001820;28;19915;-71
2022/12/10 06:27:24;;;;;;;;;;;10.90;99.90;;;;;;4975641;28;19924;-71
2022/12/10 06:32:34;;;;;;;;;;;10.90;99.90;;;;;;4984819;28;20003;-72
2022/12/10 06:35:07;;;;;;;;;;;11.00;99.90;;;;;;4972282;28;19953;-71
2022/12/10 06:37:33;;;;;;;;;;;10.90;99.90;;;;;;4984914;28;19997;-71
2022/12/10 06:39:59;;;;;;;;;;;11.00;99.90;;;;;;5068558;28;19948;-72
2022/12/10 06:42:25;;;;;;;;;;;11.00;99.90;;;;;;5060764;28;19912;-71
2022/12/10 06:57:15;;;;;;;;;;;11.00;99.90;;;;;;5055352;28;20445;-71
2022/12/10 06:59:47;;;;;;;;;;;10.90;99.90;;;;;;5053449;28;19924;-71
2022/12/10 07:02:15;;;;;;;;;;;10.90;99.90;;;;;;5052508;28;20348;-71
2022/12/10 07:04:51;;;;;;;;;;;;;;;;;;;;;
2022/12/10 07:07:28;;;;;;;;;;;11.00;99.90;;;;;;5066059;28;20002;-71
2022/12/10 07:09:54;;;;;;;;;;;11.00;99.90;;;;;;5068980;28;19991;-71
2022/12/10 07:15:17;;;;;;;;;;;11.10;99.90;;;;;;5031935;28;20027;-71
2022/12/10 07:17:49;;;;;;;;;;;11.10;99.90;;;;;;5055986;28;19959;-71
2022/12/10 07:23:21;;;;;;;;;;;11.20;99.90;;;;;;5056926;28;20399;-72
2022/12/10 07:25:57;;;;;;;;;;;;;;;;;;;;;
2022/12/10 07:28:34;;;;;;;;;;;;;;;;;;;;;
2022/12/10 07:31:10;;;;;;;;;;;11.20;99.90;;;;;;4993678;28;19917;-71
2022/12/10 07:33:39;;;;;;;;;;;11.20;99.90;;;;;;5008011;28;19987;-71
2022/12/10 07:36:08;;;;;;;;;;;11.30;99.90;;;;;;5068853;28;19916;-71
2022/12/10 07:38:34;;;;;;;;;;;11.30;99.90;;;;;;5067358;28;19912;-71
2022/12/10 07:41:08;;;;;;;;;;;11.40;99.90;;;;;;5071651;28;19938;-71
2022/12/10 07:43:34;;;;;;;;;;;11.30;99.90;;;;;;5083666;28;19912;-71
2022/12/10 07:46:31;;;;;;;;;;;11.30;99.90;;;;;;5066374;28;20315;-71
2022/12/10 07:52:25;;;;;;;;;;;11.30;99.90;;;;;;5077147;28;20353;-70
2022/12/10 07:58:54;;;;;;;;;;;11.40;99.90;;;;;;5073493;28;19920;-71
2022/12/10 08:00:55;;;;;;;;;;;11.40;99.90;;;;;;5060239;28;19912;-71
2022/12/10 08:03:20;;;;;;;;;;;11.30;99.90;;;;;;5071730;28;20363;-71
2022/12/10 08:06:01;;;;;;;;;;;11.20;99.90;;;;;;5075956;28;19909;-71
2022/12/10 08:08:39;;;;;;;;;;;;;;;;;;;;;
2022/12/10 08:11:06;;;;;;;;;;;11.20;99.90;;;;;;5067006;28;19968;-70
2022/12/10 08:13:33;;;;;;;;;;;11.20;99.90;;;;;;5074043;28;19922;-70
2022/12/10 08:16:49;;;;;;;;;;;11.20;99.90;;;;;;5074120;28;19913;-70
2022/12/10 08:19:24;;;;;;;;;;;;;;;;;;;;;
2022/12/10 08:21:50;;;;;;;;;;;11.10;99.90;;;;;;5069059;28;19931;-71
2022/12/10 08:24:16;;;;;;;;;;;11.10;99.90;;;;;;5070216;28;19995;-71
2022/12/10 08:26:42;;;;;;;;;;;11.10;99.90;;;;;;5069810;28;19933;-71
2022/12/10 08:29:13;;;;;;;;;;;11.10;99.90;;;;;;5054556;28;19919;-71
2022/12/10 08:31:47;;;;;;;;;;;11.10;99.90;;;;;;5075080;28;19913;-71
2022/12/10 08:34:13;;;;;;;;;;;11.10;99.90;;;;;;5069805;28;19917;-71
2022/12/10 08:36:48;;;;;;;;;;;11.20;99.90;;;;;;5074584;28;19920;-71
2022/12/10 08:39:26;;;;;;;;;;;;;;;;;;;;;
2022/12/10 08:41:52;;;;;;;;;;;11.30;99.90;;;;;;5069128;28;19920;-70
2022/12/10 08:44:18;;;;;;;;;;;11.40;99.90;;;;;;5071579;28;20511;-70
2022/12/10 08:46:46;;;;;;;;;;;11.50;99.90;;;;;;5069565;28;19970;-72
2022/12/10 08:49:12;;;;;;;;;;;11.60;99.90;;;;;;5073480;28;19916;-72
2022/12/10 08:51:39;;;;;;;;;;;11.70;99.90;;;;;;5065643;28;19918;-72
2022/12/10 08:54:04;;;;;;;;;;;11.70;99.90;;;;;;5067558;28;19920;-72
2022/12/10 08:56:30;;;;;;;;;;;11.70;99.90;;;;;;5071181;28;19920;-71
2022/12/10 08:59:00;;;;;;;;;;;11.80;99.90;;;;;;5068961;28;20395;-73
2022/12/10 09:01:25;;;;;;;;;;;11.80;99.90;;;;;;5068871;28;19935;-74
2022/12/10 09:03:51;;;;;;;;;;;11.80;99.90;;;;;;5072306;28;20338;-74
2022/12/10 09:06:21;;;;;;;;;;;11.80;99.90;;;;;;5071205;28;20017;-74
2022/12/10 09:08:47;;;;;;;;;;;11.80;99.90;;;;;;5071407;28;20379;-78
2022/12/10 09:11:20;;;;;;;;;;;11.90;99.90;;;;;;5067740;28;19919;-73
2022/12/10 09:13:46;;;;;;;;;;;11.90;99.90;;;;;;5061110;28;19919;-73
2022/12/10 09:16:12;;;;;;;;;;;11.90;99.90;;;;;;5071679;28;20295;-71
2022/12/10 09:18:37;;;;;;;;;;;12.00;99.90;;;;;;5071429;28;19913;-72
2022/12/10 09:21:15;;;;;;;;;;;12.00;99.90;;;;;;5070735;28;20366;-73
2022/12/10 09:23:41;;;;;;;;;;;12.00;99.90;;;;;;5073495;28;19942;-74
2022/12/10 09:26:12;;;;;;;;;;;12.00;99.90;;;;;;5069026;28;19927;-74
2022/12/10 09:28:40;;;;;;;;;;;12.00;99.90;;;;;;5064529;28;20122;-74
2022/12/10 09:31:08;;;;;;;;;;;12.10;99.90;;;;;;5068029;28;20289;-75
2022/12/10 09:33:38;;;;;;;;;;;12.10;99.90;;;;;;5067585;28;20003;-74
2022/12/10 09:36:06;;;;;;;;;;;12.10;99.90;;;;;;5066924;28;19938;-74
2022/12/10 09:38:36;;;;;;;;;;;12.10;99.90;;;;;;5068317;28;20459;-74
2022/12/10 09:41:29;;;;;;;;;;;12.20;99.90;;;;;;5070253;28;19913;-74
2022/12/10 09:44:22;;;;;;;;;;;12.20;99.90;;;;;;5065281;28;19927;-74
2022/12/10 09:46:52;;;;;;;;;;;12.20;99.90;;;;;;5066721;28;19916;-74
2022/12/10 09:49:32;;;;;;;;;;;12.20;99.90;;;;;;5073149;28;19913;-74
2022/12/10 09:52:02;;;;;;;;;;;12.20;99.90;;;;;;5073222;28;19932;-74
2022/12/10 09:54:40;;;;;;;;;;;12.20;99.90;;;;;;5055855;28;19912;-74
2022/12/10 09:57:07;;;;;;;;;;;12.30;99.90;;;;;;5074225;28;20287;-74
2022/12/10 09:59:43;;;;;;;;;;;12.30;99.90;;;;;;5055465;28;19941;-74
2022/12/10 10:02:38;;;;;;;;;;;12.30;99.90;;;;;;5059644;28;20283;-74
2022/12/10 10:05:10;;;;;;;;;;;12.30;99.90;;;;;;5043782;28;20341;-74
2022/12/10 10:10:49;;;;;;;;;;;12.40;99.90;;;;;;5059360;28;20005;-73
2022/12/10 10:13:18;;;;;;;;;;;12.30;99.90;;;;;;5066583;28;19939;-73
2022/12/10 10:15:48;;;;;;;;;;;12.40;99.90;;;;;;5064117;28;19920;-73
2022/12/10 10:18:22;;;;;;;;;;;12.30;99.90;;;;;;5063919;28;19909;-73
2022/12/10 10:20:49;;;;;;;;;;;12.40;99.90;;;;;;5046577;28;19909;-73
2022/12/10 10:23:22;;;;;;;;;;;12.40;99.90;;;;;;5068920;28;19995;-75
2022/12/10 10:25:48;;;;;;;;;;;12.40;99.90;;;;;;5061527;28;19920;-73
2022/12/10 10:28:17;;;;;;;;;;;12.40;99.90;;;;;;5086325;28;19916;-74
2022/12/10 10:30:46;;;;;;;;;;;12.40;99.90;;;;;;5065552;28;19919;-74
2022/12/10 10:33:13;;;;;;;;;;;12.30;99.90;;;;;;5067789;28;19920;-73
2022/12/10 10:35:44;;;;;;;;;;;12.30;99.90;;;;;;5063776;28;19962;-74
2022/12/10 10:38:32;;;;;;;;;;;12.30;99.90;;;;;;5065561;28;20307;-73
2022/12/10 10:41:05;;;;;;;;;;;12.30;99.90;;;;;;5066507;28;20016;-73
2022/12/10 10:43:59;;;;;;;;;;;12.30;99.90;;;;;;5072789;28;19919;-73
2022/12/10 10:46:28;;;;;;;;;;;12.30;99.90;;;;;;5074778;28;20375;-72
2022/12/10 10:49:11;;;;;;;;;;;12.30;99.90;;;;;;5066512;28;20033;-73
2022/12/10 10:51:41;;;;;;;;;;;12.30;99.90;;;;;;5055396;28;20011;-73
2022/12/10 10:54:07;;;;;;;;;;;12.30;99.90;;;;;;5073029;28;20367;-72
2022/12/10 10:56:49;;;;;;;;;;;12.30;99.90;;;;;;5073198;28;19931;-72
2022/12/10 10:59:19;;;;;;;;;;;12.20;99.90;;;;;;5072995;28;20321;-72
2022/12/10 11:01:44;;;;;;;;;;;12.10;99.90;;;;;;5072775;28;19912;-73
2022/12/10 11:04:10;;;;;;;;;;;12.00;99.90;;;;;;5069931;28;19909;-73
2022/12/10 11:07:01;;;;;;;;;;;11.90;99.90;;;;;;5071096;28;19912;-76
2022/12/10 11:09:57;;;;;;;;;;;11.90;99.90;;;;;;5072993;28;19948;-72
2022/12/10 11:12:39;;;;;;;;;;;12.00;99.90;;;;;;5073990;28;19966;-72
2022/12/10 11:15:25;;;;;;;;;;;12.10;99.90;;;;;;5073174;28;19920;-72
2022/12/10 11:17:55;;;;;;;;;;;12.10;99.90;;;;;;5066695;28;20395;-73
2022/12/10 11:21:08;;;;;;;;;;;12.10;99.90;;;;;;5054668;28;20410;-73
2022/12/10 11:23:27;;;;;;;;;;;12.00;99.90;;;;;;5062151;28;19991;-73
2022/12/10 11:26:12;;;;;;;;;;;12.00;99.90;;;;;;5071307;28;19920;-73
2022/12/10 11:28:52;;;;;;;;;;;11.90;99.90;;;;;;5072025;28;19958;-73
2022/12/10 11:31:55;;;;;;;;;;;11.80;99.90;;;;;;5065522;28;20275;-73
2022/12/10 11:34:37;;;;;;;;;;;11.70;99.90;;;;;;5072950;28;20074;-76
2022/12/10 11:37:13;;;;;;;;;;;11.70;99.90;;;;;;5073069;28;19909;-77
2022/12/10 11:39:39;;;;;;;;;;;11.70;99.90;;;;;;5071070;28;19913;-73
2022/12/10 11:45:45;;;;;;;;;;;11.50;99.90;;;;;;4952172;29;19965;-72
2022/12/10 11:51:38;;;;;;;;;;;11.80;99.90;;;;;;4952624;29;19950;-77
2022/12/10 11:54:21;;;;;;;;;;;11.70;99.90;;;;;;4984612;28;20037;-73
2022/12/10 11:57:06;;;;;;;;;;;11.60;99.90;;;;;;4990916;28;20024;-74
2022/12/10 11:59:47;;;;;;;;;;;11.40;99.90;;;;;;5042219;28;19916;-73
2022/12/10 12:05:47;;;;;;;;;;;11.30;99.90;;;;;;5054591;28;19916;-73
2022/12/10 12:08:27;;;;;;;;;;;11.20;99.90;;;;;;5041173;28;20004;-72
2022/12/10 12:11:11;;;;;;;;;;;11.10;99.90;;;;;;5071628;28;19909;-71
2022/12/10 12:13:37;;;;;;;;;;;11.00;99.90;;;;;;5076367;28;20340;-73
2022/12/10 12:16:28;;;;;;;;;;;11.00;99.90;;;;;;5072903;28;19923;-72
2022/12/10 12:19:03;;;;;;;;;;;11.00;99.90;;;;;;5074003;28;21049;-71
2022/12/10 12:21:28;;;;;;;;;;;11.00;99.90;;;;;;5075768;28;19908;-72
2022/12/10 12:24:11;;;;;;;;;;;11.00;99.90;;;;;;5075510;28;19909;-72
2022/12/10 12:26:49;;;;;;;;;;;11.00;99.90;;;;;;5075371;28;20295;-72
2022/12/10 12:29:23;;;;;;;;;;;11.00;99.90;;;;;;5075614;28;20376;-72
2022/12/10 12:31:56;;;;;;;;;;;11.00;99.90;;;;;;5050707;28;19913;-72
2022/12/10 12:34:50;;;;;;;;;;;11.00;99.90;;;;;;5071779;28;20037;-72
2022/12/10 12:37:28;;;;;;;;;;;11.00;99.90;;;;;;5075048;28;19908;-72
2022/12/10 12:40:15;;;;;;;;;;;10.90;99.90;;;;;;5075715;28;19912;-72
2022/12/10 12:43:28;;;;;;;;;;;10.90;99.90;;;;;;5077404;28;20387;-72
2022/12/10 12:45:59;;;;;;;;;;;10.90;99.90;;;;;;5078603;28;19952;-73
2022/12/10 12:49:05;;;;;;;;;;;10.80;99.90;;;;;;5080706;28;19908;-72
2022/12/10 12:51:44;;;;;;;;;;;10.90;99.90;;;;;;5068106;28;20030;-73
2022/12/10 12:54:11;;;;;;;;;;;10.90;99.90;;;;;;5076002;28;19958;-72
2022/12/10 12:56:49;;;;;;;;;;;10.90;99.90;;;;;;5055709;28;19921;-71
2022/12/10 12:59:33;;;;;;;;;;;10.80;99.90;;;;;;5072918;28;19920;-72
2022/12/10 13:02:22;;;;;;;;;;;10.80;99.90;;;;;;5075826;28;19913;-72
2022/12/10 13:04:49;;;;;;;;;;;10.80;99.90;;;;;;5060823;28;19936;-72
2022/12/10 13:07:15;;;;;;;;;;;10.80;99.90;;;;;;5071727;28;19912;-72
2022/12/10 13:09:47;;;;;;;;;;;10.80;99.90;;;;;;5071531;28;19931;-71
2022/12/10 13:12:52;;;;;;;;;;;10.70;99.90;;;;;;5074561;28;19923;-71
2022/12/10 13:15:17;;;;;;;;;;;10.70;99.90;;;;;;4992951;28;19918;-71
2022/12/10 13:18:00;;;;;;;;;;;10.60;99.90;;;;;;4992725;28;20056;-71
2022/12/10 13:20:26;;;;;;;;;;;10.60;99.90;;;;;;5028571;28;20388;-72
2022/12/10 13:22:56;;;;;;;;;;;10.60;99.90;;;;;;5076130;28;19919;-71
2022/12/10 13:25:37;;;;;;;;;;;10.50;99.90;;;;;;5073280;28;20425;-72
2022/12/10 13:28:16;;;;;;;;;;;10.60;99.90;;;;;;5069900;28;19908;-72
2022/12/10 13:30:42;;;;;;;;;;;10.50;99.90;;;;;;5067516;28;19916;-72
2022/12/10 13:33:23;;;;;;;;;;;10.40;99.90;;;;;;5075132;28;20306;-72
2022/12/10 13:35:59;;;;;;;;;;;10.20;99.90;;;;;;5073877;28;19920;-71
2022/12/10 13:38:26;;;;;;;;;;;10.10;99.90;;;;;;5070280;28;19919;-71
2022/12/10 13:46:55;;;;;;;;;;;10.10;99.90;;;;;;5074087;28;19915;-73
2022/12/10 13:49:24;;;;;;;;;;;10.10;99.90;;;;;;5074577;28;20197;-73
2022/12/10 13:51:54;;;;;;;;;;;10.00;99.90;;;;;;5074183;28;19912;-72
2022/12/10 13:54:36;;;;;;;;;;;10.10;99.90;;;;;;5074442;28;19967;-72
2022/12/10 14:00:17;;;;;;;;;;;10.00;99.90;;;;;;5072477;28;19919;-72
2022/12/10 14:02:42;;;;;;;;;;;10.00;99.90;;;;;;5074308;28;19912;-73
2022/12/10 14:05:14;;;;;;;;;;;9.90;99.90;;;;;;5074091;28;19909;-72
2022/12/10 14:07:43;;;;;;;;;;;9.90;99.90;;;;;;5070384;28;19912;-73
2022/12/10 14:10:14;;;;;;;;;;;9.80;99.90;;;;;;5068051;28;19913;-73
2022/12/10 14:12:40;;;;;;;;;;;9.80;99.90;;;;;;5073451;28;20131;-75
2022/12/10 14:15:27;;;;;;;;;;;9.80;99.90;;;;;;5067353;28;19970;-73
2022/12/10 14:18:11;;;;;;;;;;;9.80;99.90;;;;;;5060010;28;19917;-74
2022/12/10 14:20:39;;;;;;;;;;;9.70;99.90;;;;;;5052946;28;19908;-73
2022/12/10 14:23:37;;;;;;;;;;;9.70;99.90;;;;;;5054331;28;19909;-74
2022/12/10 14:26:11;;;;;;;;;;;9.60;99.90;;;;;;5068865;28;19919;-74
2022/12/10 14:28:57;;;;;;;;;;;9.60;99.90;;;;;;5072749;28;19916;-74
2022/12/10 14:31:30;;;;;;;;;;;9.60;99.90;;;;;;5065195;28;19928;-73
2022/12/10 14:34:01;;;;;;;;;;;9.70;99.90;;;;;;5072689;28;19916;-74
2022/12/10 14:36:29;;;;;;;;;;;9.70;99.90;;;;;;5047928;28;20375;-74
2022/12/10 14:38:55;;;;;;;;;;;9.70;99.90;;;;;;5048547;28;19946;-74
2022/12/10 14:41:22;;;;;;;;;;;9.70;99.90;;;;;;5076007;28;19996;-74
2022/12/10 14:47:22;;;;;;;;;;;9.60;99.90;;;;;;5005845;28;19937;-73
2022/12/10 14:50:16;;;;;;;;;;;9.50;99.90;;;;;;5009719;28;19909;-74
2022/12/10 14:52:43;;;;;;;;;;;9.60;99.90;;;;;;4998615;28;19925;-74
2022/12/10 14:55:24;;;;;;;;;;;9.60;99.90;;;;;;5037774;28;19923;-74
2022/12/10 14:57:56;;;;;;;;;;;9.60;99.90;;;;;;5067442;28;19912;-73
2022/12/10 15:00:23;;;;;;;;;;;9.60;99.90;;;;;;5073852;28;19920;-73
2022/12/10 15:02:54;;;;;;;;;;;9.60;99.90;;;;;;5070346;28;19913;-73
2022/12/10 15:05:23;;;;;;;;;;;9.60;99.90;;;;;;5068448;28;19912;-73
2022/12/10 15:07:59;;;;;;;;;;;9.60;99.90;;;;;;5070019;28;20326;-72
2022/12/10 15:10:35;;;;;;;;;;;9.60;99.90;;;;;;5078276;28;19913;-73
2022/12/10 15:13:57;;;;;;;;;;;9.60;99.90;;;;;;5077910;28;20419;-73
2022/12/10 15:16:04;;;;;;;;;;;9.60;99.90;;;;;;5075474;28;19916;-74
2022/12/10 15:18:32;;;;;;;;;;;9.60;99.90;;;;;;5085786;28;19909;-73
2022/12/10 15:21:04;;;;;;;;;;;9.60;99.90;;;;;;5082159;28;20356;-74
2022/12/10 15:23:30;;;;;;;;;;;9.50;99.90;;;;;;5081276;28;19975;-73
2022/12/10 15:26:10;;;;;;;;;;;9.40;99.90;;;;;;5075210;28;20419;-74
2022/12/10 15:32:22;;;;;;;;;;;9.40;99.90;;;;;;4948949;29;19915;-74
2022/12/10 15:34:53;;;;;;;;;;;9.30;99.90;;;;;;4945069;29;19922;-74
2022/12/10 15:40:26;;;;;;;;;;;9.10;99.90;;;;;;5088053;28;19919;-74
2022/12/10 15:44:04;;;;;;;;;;;9.10;99.90;;;;;;5082656;28;19924;-73
2022/12/10 15:46:52;;;;;;;;;;;9.10;99.90;;;;;;5025387;28;19913;-73
2022/12/10 15:49:21;;;;;;;;;;;9.10;99.90;;;;;;5020595;28;19936;-73
2022/12/10 15:51:56;;;;;;;;;;;9.10;99.90;;;;;;5079069;28;19983;-73
2022/12/10 15:54:45;;;;;;;;;;;9.10;99.90;;;;;;5083266;28;19939;-73
2022/12/10 15:57:11;;;;;;;;;;;9.00;99.90;;;;;;5056104;28;20077;-72
2022/12/10 15:59:37;;;;;;;;;;;9.00;99.90;;;;;;5084280;28;19974;-73
2022/12/10 16:02:03;;;;;;;;;;;8.90;99.90;;;;;;5068433;28;19917;-73
2022/12/10 16:04:28;;;;;;;;;;;8.90;99.90;;;;;;5081823;28;20007;-72
2022/12/10 16:06:54;;;;;;;;;;;8.80;99.90;;;;;;5079050;28;19912;-73
2022/12/10 16:09:21;;;;;;;;;;;8.80;99.90;;;;;;5079503;28;19918;-72
2022/12/10 16:11:46;;;;;;;;;;;8.70;99.90;;;;;;5080386;28;20402;-72
2022/12/10 16:14:21;;;;;;;;;;;8.70;99.90;;;;;;5082126;28;19951;-72
2022/12/10 16:16:47;;;;;;;;;;;8.60;99.90;;;;;;5080445;28;20012;-72
2022/12/10 16:19:28;;;;;;;;;;;8.60;99.90;;;;;;5080778;28;19952;-71
2022/12/10 16:22:03;;;;;;;;;;;8.60;99.90;;;;;;5077385;28;19912;-71
2022/12/10 16:24:32;;;;;;;;;;;8.60;99.90;;;;;;5075397;28;19920;-72
2022/12/10 16:26:57;;;;;;;;;;;8.60;99.90;;;;;;5079249;28;19931;-71
2022/12/10 16:29:23;;;;;;;;;;;8.60;99.90;;;;;;5081879;28;19919;-71
2022/12/10 16:31:52;;;;;;;;;;;8.60;99.90;;;;;;5082231;28;19957;-72
2022/12/10 16:34:21;;;;;;;;;;;8.60;99.90;;;;;;5074715;28;19916;-72
2022/12/10 16:36:47;;;;;;;;;;;8.60;99.90;;;;;;5084410;28;19913;-72
2022/12/10 16:39:13;;;;;;;;;;;8.60;99.90;;;;;;5078044;28;19916;-71
2022/12/10 16:41:40;;;;;;;;;;;8.60;99.90;;;;;;5083805;28;19919;-71
2022/12/10 16:44:05;;;;;;;;;;;8.60;99.90;;;;;;5078213;28;20335;-71
2022/12/10 16:46:31;;;;;;;;;;;8.50;99.90;;;;;;5082955;28;19908;-72
2022/12/10 16:52:03;;;;;;;;;;;8.50;99.90;;;;;;5034772;28;19920;-72
2022/12/10 16:54:29;;;;;;;;;;;8.50;99.90;;;;;;5073399;28;19967;-71
2022/12/10 16:57:17;;;;;;;;;;;8.50;99.90;;;;;;5078617;28;20403;-72
2022/12/10 16:59:43;;;;;;;;;;;8.50;99.90;;;;;;5078159;28;20371;-72
2022/12/10 17:02:20;;;;;;;;;;;8.40;99.90;;;;;;5066374;28;19979;-72
2022/12/10 17:04:48;;;;;;;;;;;8.50;99.90;;;;;;5073484;28;19954;-72
2022/12/10 17:07:14;;;;;;;;;;;8.40;99.90;;;;;;5062841;28;19912;-72
2022/12/10 17:09:51;;;;;;;;;;;8.40;99.90;;;;;;5079608;28;19916;-71
2022/12/10 17:12:21;;;;;;;;;;;8.40;99.90;;;;;;5082781;28;19912;-71
2022/12/10 17:14:47;;;;;;;;;;;8.40;99.90;;;;;;5083067;28;19912;-71
2022/12/10 17:17:17;;;;;;;;;;;8.30;99.90;;;;;;5067315;28;19912;-71
2022/12/10 17:19:45;;;;;;;;;;;8.30;99.90;;;;;;5074473;28;19924;-71
2022/12/10 17:22:17;;;;;;;;;;;8.30;99.90;;;;;;5082802;28;19908;-71
2022/12/10 17:24:46;;;;;;;;;;;8.30;99.90;;;;;;5073181;28;19912;-71
2022/12/10 17:27:17;;;;;;;;;;;8.20;99.90;;;;;;5071386;28;19912;-71
2022/12/10 17:29:58;;;;;;;;;;;8.30;99.90;;;;;;5062746;28;19912;-71
2022/12/10 17:32:29;;;;;;;;;;;8.30;99.90;;;;;;5072978;28;19913;-71
2022/12/10 17:34:55;;;;;;;;;;;8.30;99.90;;;;;;5061745;28;19931;-71
2022/12/10 17:37:31;;;;;;;;;;;8.40;99.90;;;;;;5051751;28;20353;-70
2022/12/10 17:40:03;;;;;;;;;;;8.40;99.90;;;;;;5065605;28;19958;-71
2022/12/10 17:42:29;;;;;;;;;;;8.40;99.90;;;;;;5055568;28;19912;-71
2022/12/10 17:45:01;;;;;;;;;;;8.40;99.90;;;;;;5054338;28;19924;-71
2022/12/10 17:47:27;;;;;;;;;;;8.40;99.90;;;;;;5056693;28;20465;-71
2022/12/10 17:49:54;;;;;;;;;;;8.50;99.90;;;;;;5067754;28;20354;-71
2022/12/10 17:52:20;;;;;;;;;;;8.50;99.90;;;;;;5068077;28;20046;-71
2022/12/10 17:54:54;;;;;;;;;;;8.50;99.90;;;;;;5070131;28;19919;-74
2022/12/10 17:57:21;;;;;;;;;;;8.50;99.90;;;;;;5051096;28;19912;-71
2022/12/10 17:59:57;;;;;;;;;;;8.50;99.90;;;;;;5068881;28;19915;-71
2022/12/10 18:02:26;;;;;;;;;;;8.50;99.90;;;;;;5072282;28;20014;-71
2022/12/10 18:04:52;;;;;;;;;;;8.50;99.90;;;;;;5067943;28;20368;-71
2022/12/10 18:07:18;;;;;;;;;;;8.60;99.90;;;;;;5073796;28;19908;-72
2022/12/10 18:09:47;;;;;;;;;;;8.60;99.90;;;;;;5074224;28;19912;-71
2022/12/10 18:12:13;;;;;;;;;;;8.60;99.90;;;;;;5071452;28;19912;-75
2022/12/10 18:14:46;;;;;;;;;;;8.60;99.90;;;;;;5066070;28;19924;-70
2022/12/10 18:17:36;;;;;;;;;;;8.60;99.90;;;;;;5074960;28;19912;-71
2022/12/10 18:20:02;;;;;;;;;;;8.60;99.90;;;;;;5073503;28;19959;-71
2022/12/10 18:22:28;;;;;;;;;;;8.70;99.90;;;;;;5065972;28;19921;-71
2022/12/10 18:24:54;;;;;;;;;;;8.70;99.90;;;;;;5073013;28;19913;-71
2022/12/10 18:27:23;;;;;;;;;;;8.70;99.90;;;;;;5072961;28;20283;-72
2022/12/10 18:29:49;;;;;;;;;;;8.70;99.90;;;;;;5073347;28;19909;-71
2022/12/10 18:32:14;;;;;;;;;;;8.80;99.90;;;;;;5087487;28;19920;-71
2022/12/10 18:34:58;;;;;;;;;;;8.70;99.90;;;;;;5070319;28;20863;-71
2022/12/10 18:37:24;;;;;;;;;;;8.80;99.90;;;;;;5073553;28;20395;-74
2022/12/10 18:39:50;;;;;;;;;;;8.70;99.90;;;;;;5067612;28;19920;-73
2022/12/10 18:42:17;;;;;;;;;;;8.70;99.90;;;;;;5070507;28;20006;-71
2022/12/10 18:44:43;;;;;;;;;;;8.70;99.90;;;;;;5065966;28;19923;-73
2022/12/10 18:47:13;;;;;;;;;;;8.70;99.90;;;;;;5063864;28;20380;-72
2022/12/10 18:49:51;;;;;;;;;;;8.70;99.90;;;;;;5070413;28;19912;-72
2022/12/10 18:52:17;;;;;;;;;;;8.70;99.90;;;;;;5064919;28;20388;-71
2022/12/10 18:54:52;;;;;;;;;;;8.70;99.90;;;;;;5062697;28;19931;-71
2022/12/10 18:57:21;;;;;;;;;;;8.60;99.90;;;;;;5070109;28;19935;-71
2022/12/10 18:59:47;;;;;;;;;;;8.60;99.90;;;;;;5072084;28;19924;-71
2022/12/10 19:02:13;;;;;;;;;;;8.70;99.90;;;;;;5069293;28;19954;-70
2022/12/10 19:04:38;;;;;;;;;;;8.70;99.90;;;;;;5064678;28;20010;-71